createdAt,value
2018-05-16T00:03:06.774Z,15.53
2018-05-16T00:07:58.041Z,15.51
2018-05-16T00:12:49.336Z,15.49
2018-05-16T00:17:40.646Z,15.47
2018-05-16T00:22:31.962Z,15.44
2018-05-16T00:27:23.214Z,15.44
2018-05-16T00:32:15.320Z,15.43
2018-05-16T00:37:06.580Z,15.43
2018-05-16T00:41:57.837Z,15.42
2018-05-16T00:46:49.101Z,15.40
2018-05-16T00:51:40.407Z,15.41
2018-05-16T00:56:32.396Z,15.43
2018-05-16T01:01:23.641Z,15.43
2018-05-16T01:06:14.880Z,15.42
2018-05-16T01:11:06.178Z,15.42
2018-05-16T01:15:57.502Z,15.42
2018-05-16T01:20:48.741Z,15.41
2018-05-16T01:25:40.020Z,15.38
2018-05-16T01:30:32.083Z,15.38
2018-05-16T01:35:23.342Z,15.38
2018-05-16T01:40:14.621Z,15.37
2018-05-16T01:45:05.903Z,15.36
2018-05-16T01:49:57.231Z,15.36
2018-05-16T01:54:48.532Z,15.36
2018-05-16T01:59:39.842Z,15.35
2018-05-16T02:04:31.921Z,15.36
2018-05-16T02:09:23.207Z,15.34
2018-05-16T02:14:14.473Z,15.34
2018-05-16T02:19:05.806Z,15.34
2018-05-16T02:23:57.105Z,15.33
2018-05-16T02:28:49.109Z,15.31
2018-05-16T02:33:40.377Z,15.29
2018-05-16T02:38:31.720Z,15.27
2018-05-16T02:43:23.697Z,15.27
2018-05-16T02:48:14.983Z,15.27
2018-05-16T02:53:07.065Z,15.23
2018-05-16T02:57:58.357Z,15.22
2018-05-16T03:02:49.644Z,15.24
2018-05-16T03:07:40.977Z,15.24
2018-05-16T03:12:32.201Z,15.21
2018-05-16T03:17:23.491Z,15.19
2018-05-16T03:22:15.530Z,15.19
2018-05-16T03:27:07.520Z,15.19
2018-05-16T03:31:58.782Z,15.22
2018-05-16T03:36:50.089Z,15.20
2018-05-16T03:41:41.391Z,15.20
2018-05-16T03:46:32.685Z,15.20
2018-05-16T03:51:24.794Z,15.18
2018-05-16T03:56:16.201Z,15.16
2018-05-16T04:01:26.076Z,15.16
2018-05-16T04:06:17.425Z,15.14
2018-05-16T04:11:08.688Z,15.12
2018-05-16T04:15:59.930Z,15.14
2018-05-16T04:20:51.914Z,15.14
2018-05-16T04:25:43.984Z,15.16
2018-05-16T04:30:35.474Z,15.19
2018-05-16T04:35:26.889Z,15.19
2018-05-16T04:40:18.119Z,15.19
2018-05-16T04:45:09.447Z,15.16
2018-05-16T04:50:01.512Z,15.18
2018-05-16T04:54:52.806Z,15.18
2018-05-16T04:59:44.141Z,15.20
2018-05-16T05:04:35.398Z,15.17
2018-05-16T05:09:26.782Z,15.24
2018-05-16T05:14:18.008Z,15.30
2018-05-16T05:19:09.249Z,15.34
2018-05-16T05:24:00.499Z,15.37
2018-05-16T05:28:52.533Z,15.42
2018-05-16T05:33:44.572Z,15.43
2018-05-16T05:38:35.843Z,15.44
2018-05-16T05:43:27.148Z,15.47
2018-05-16T05:48:18.545Z,15.54
2018-05-16T05:53:09.866Z,15.64
2018-05-16T05:58:01.125Z,15.77
2018-05-16T06:02:52.998Z,15.93
2018-05-16T06:07:44.261Z,16.02
2018-05-16T06:12:35.568Z,16.04
2018-05-16T06:17:27.020Z,16.11
2018-05-16T06:22:18.295Z,16.18
2018-05-16T06:27:10.355Z,16.23
2018-05-16T06:32:01.724Z,16.29
2018-05-16T06:36:52.990Z,16.36
2018-05-16T06:41:44.278Z,16.40
2018-05-16T06:46:35.545Z,16.44
2018-05-16T06:51:26.837Z,16.51
2018-05-16T06:56:18.201Z,16.61
2018-05-16T07:01:09.466Z,16.73
2018-05-16T07:06:00.938Z,16.90
2018-05-16T07:10:52.276Z,17.22
2018-05-16T07:15:43.536Z,17.53
2018-05-16T07:20:34.816Z,17.71
2018-05-16T07:25:26.153Z,17.82
2018-05-16T07:30:17.428Z,17.89
2018-05-16T07:35:09.454Z,17.99
2018-05-16T07:40:00.980Z,18.33
2018-05-16T07:44:52.998Z,18.71
2018-05-16T07:49:44.261Z,19.08
2018-05-16T07:54:36.480Z,19.36
2018-05-16T07:59:27.702Z,20.03
2018-05-16T08:04:19.156Z,20.75
2018-05-16T08:09:10.456Z,20.96
2018-05-16T08:14:01.833Z,21.38
2018-05-16T08:18:53.285Z,21.64
2018-05-16T08:23:44.593Z,21.38
2018-05-16T08:28:35.879Z,21.21
2018-05-16T08:33:28.139Z,21.69
2018-05-16T08:38:19.648Z,22.32
2018-05-16T08:43:10.933Z,22.80
2018-05-16T08:48:02.260Z,22.93
2018-05-16T08:52:53.546Z,22.87
2018-05-16T08:57:44.842Z,23.09
2018-05-16T09:02:36.423Z,23.43
2018-05-16T09:07:27.842Z,23.56
2018-05-16T09:12:19.174Z,23.50
2018-05-16T09:17:10.459Z,23.82
2018-05-16T09:26:57.633Z,23.94
2018-05-16T09:31:48.921Z,23.98
2018-05-16T09:36:40.273Z,24.44
2018-05-16T09:41:32.310Z,24.73
2018-05-16T09:46:24.390Z,24.71
2018-05-16T09:51:15.817Z,24.67
2018-05-16T09:56:07.894Z,24.35
2018-05-16T10:00:59.193Z,24.02
2018-05-16T10:05:51.242Z,23.77
2018-05-16T10:10:42.502Z,23.60
2018-05-16T10:15:33.838Z,23.58
2018-05-16T10:20:25.072Z,23.64
2018-05-16T10:25:16.330Z,23.76
2018-05-16T10:30:07.599Z,24.03
2018-05-16T10:34:58.873Z,24.73
2018-05-16T10:39:50.175Z,25.36
2018-05-16T10:44:41.447Z,25.45
2018-05-16T10:49:33.517Z,25.70
2018-05-16T10:54:24.812Z,25.98
2018-05-16T10:59:16.151Z,25.93
2018-05-16T11:04:07.471Z,26.00
2018-05-16T11:08:58.835Z,26.01
2018-05-16T11:13:51.682Z,26.15
2018-05-16T11:18:43.660Z,25.98
2018-05-16T11:23:34.940Z,26.03
2018-05-16T11:28:26.312Z,26.12
2018-05-16T11:33:18.308Z,26.47
2018-05-16T11:38:09.550Z,26.72
2018-05-16T11:43:00.878Z,26.89
2018-05-16T11:47:52.158Z,27.08
2018-05-16T11:52:44.204Z,27.24
2018-05-16T11:57:36.190Z,27.28
2018-05-16T12:02:27.479Z,27.48
2018-05-16T12:07:19.553Z,27.32
2018-05-16T12:12:10.862Z,27.03
2018-05-16T12:17:02.921Z,27.26
2018-05-16T12:21:54.909Z,27.22
2018-05-16T12:26:46.416Z,27.00
2018-05-16T12:31:37.742Z,26.71
2018-05-16T12:36:29.393Z,26.65
2018-05-16T12:41:20.759Z,26.68
2018-05-16T12:46:12.099Z,26.64
2018-05-16T12:51:03.365Z,26.58
2018-05-16T12:55:54.641Z,26.52
2018-05-16T13:00:45.926Z,26.38
2018-05-16T13:05:37.319Z,26.36
2018-05-16T13:10:36.366Z,26.49
2018-05-16T13:15:34.461Z,26.64
2018-05-16T13:20:25.769Z,26.81
2018-05-16T13:25:17.165Z,26.88
2018-05-16T13:30:08.420Z,26.93
2018-05-16T13:35:00.414Z,26.81
2018-05-16T13:39:51.810Z,26.83
2018-05-16T13:44:43.080Z,26.92
2018-05-16T13:49:34.408Z,26.96
2018-05-16T13:54:25.735Z,26.87
2018-05-16T13:59:17.133Z,26.70
2018-05-16T14:04:08.429Z,26.57
2018-05-16T14:09:00.508Z,26.43
2018-05-16T14:13:51.868Z,26.36
2018-05-16T14:18:43.193Z,26.19
2018-05-16T14:23:34.486Z,26.00
2018-05-16T14:28:26.526Z,25.82
2018-05-16T14:33:17.831Z,25.75
2018-05-16T14:38:09.099Z,25.75
2018-05-16T14:43:01.234Z,25.75
2018-05-16T14:47:52.613Z,25.64
2018-05-16T14:52:43.851Z,25.39
2018-05-16T14:57:35.135Z,25.26
2018-05-16T15:02:26.441Z,25.29
2018-05-16T15:07:18.506Z,25.16
2018-05-16T15:12:10.512Z,25.07
2018-05-16T15:17:01.793Z,24.94
2018-05-16T15:21:53.050Z,24.87
2018-05-16T15:26:44.384Z,24.95
2018-05-16T15:31:35.632Z,24.98
2018-05-16T15:36:26.998Z,24.97
2018-05-16T15:41:19.049Z,24.91
2018-05-16T15:46:11.052Z,24.84
2018-05-16T15:51:02.379Z,24.79
2018-05-16T15:55:53.634Z,24.72
2018-05-16T16:00:45.016Z,24.65
2018-05-16T16:05:41.373Z,24.62
2018-05-16T16:10:32.770Z,24.62
2018-05-16T16:15:24.068Z,24.63
2018-05-16T16:20:15.341Z,24.68
2018-05-16T16:25:06.659Z,24.66
2018-05-16T16:29:57.953Z,24.62
2018-05-16T16:34:49.232Z,24.56
2018-05-16T16:39:40.506Z,24.63
2018-05-16T16:44:31.837Z,24.64
2018-05-16T16:49:23.064Z,24.58
2018-05-16T16:54:14.348Z,24.62
2018-05-16T16:59:05.697Z,24.59
2018-05-16T17:03:57.032Z,24.59
2018-05-16T17:08:48.329Z,24.56
2018-05-16T17:13:40.325Z,24.51
2018-05-16T17:18:31.566Z,24.51
2018-05-16T17:23:22.911Z,24.50
2018-05-16T17:28:14.104Z,24.41
2018-05-16T17:33:05.769Z,24.40
2018-05-16T17:37:57.042Z,24.38
2018-05-16T17:42:48.353Z,24.34
2018-05-16T17:47:39.632Z,24.29
2018-05-16T17:52:30.884Z,24.23
2018-05-16T17:57:22.241Z,24.17
2018-05-16T18:02:14.224Z,24.10
2018-05-16T18:07:05.563Z,24.00
2018-05-16T18:11:56.878Z,23.94
2018-05-16T18:17:06.700Z,23.85
2018-05-16T18:21:57.937Z,23.78
2018-05-16T18:26:49.972Z,23.71
2018-05-16T18:31:42.029Z,23.65
2018-05-16T18:36:34.073Z,23.55
2018-05-16T18:41:26.081Z,23.51
2018-05-16T18:46:17.371Z,23.46
2018-05-16T18:51:08.671Z,23.41
2018-05-16T18:56:00.712Z,23.41
2018-05-16T19:00:52.013Z,23.40
2018-05-16T19:05:43.424Z,23.34
2018-05-16T19:10:34.660Z,23.28
2018-05-16T19:15:25.901Z,23.17
2018-05-16T19:20:17.213Z,23.07
2018-05-16T19:25:08.519Z,22.96
2018-05-16T19:29:59.775Z,22.88
2018-05-16T19:34:50.997Z,22.80
2018-05-16T19:39:42.436Z,22.69
2018-05-16T19:44:33.839Z,22.58
2018-05-16T19:49:25.089Z,22.49
2018-05-16T19:54:16.348Z,22.37
2018-05-16T19:59:07.658Z,22.29
2018-05-16T20:03:59.004Z,22.17
2018-05-16T20:08:50.286Z,22.10
2018-05-16T20:13:41.622Z,22.01
2018-05-16T20:18:32.978Z,21.91
2018-05-16T20:23:24.261Z,21.83
2018-05-16T20:28:16.332Z,21.74
2018-05-16T20:33:07.626Z,21.68
2018-05-16T20:37:59.648Z,21.59
2018-05-16T20:42:50.957Z,21.50
2018-05-16T20:47:42.320Z,21.42
2018-05-16T20:52:33.606Z,21.32
2018-05-16T20:57:24.903Z,21.23
2018-05-16T21:02:16.936Z,21.14
2018-05-16T21:07:08.249Z,21.06
2018-05-16T21:11:59.541Z,20.97
2018-05-16T21:16:50.809Z,20.92
2018-05-16T21:21:49.065Z,20.85
2018-05-16T21:26:40.389Z,20.80
2018-05-16T21:31:31.686Z,20.70
2018-05-16T21:36:22.957Z,20.59
2018-05-16T21:41:14.253Z,20.51
2018-05-16T21:46:06.354Z,20.43
2018-05-16T21:50:57.580Z,20.38
2018-05-16T21:55:48.875Z,20.36
2018-05-16T22:00:40.904Z,20.32
2018-05-16T22:05:32.360Z,20.18
2018-05-16T22:10:24.362Z,20.07
2018-05-16T22:15:15.596Z,19.94
2018-05-16T22:20:06.863Z,19.82
2018-05-16T22:24:58.105Z,19.78
2018-05-16T22:29:49.449Z,19.76
2018-05-16T22:34:46.702Z,19.74
2018-05-16T22:39:44.209Z,19.72
2018-05-16T22:44:36.270Z,19.69
2018-05-16T22:49:27.550Z,19.59
2018-05-16T22:54:18.881Z,19.48
2018-05-16T22:59:10.226Z,19.40
2018-05-16T23:04:01.515Z,19.27
2018-05-16T23:08:53.567Z,19.18
2018-05-16T23:13:45.618Z,19.10
2018-05-16T23:18:37.620Z,19.02
2018-05-16T23:23:28.930Z,18.93
2018-05-16T23:28:20.205Z,18.84
2018-05-16T23:33:12.299Z,18.74
2018-05-16T23:38:03.573Z,18.66
2018-05-16T23:42:54.781Z,18.61
2018-05-16T23:47:46.030Z,18.59
2018-05-16T23:52:37.415Z,18.54
2018-05-16T23:57:28.724Z,18.44
